Time;durP1;ratioP1;P1;durP2;ratioP2;P2;SDS_P1;SDS_P2;PMS_P1;PMS_P2;Temp;Humidity;BMP_temperature;BMP_pressure;BME280_temperature;BME280_humidity;BME280_pressure;Samples;Min_cycle;Max_cycle;Signal;HPM_P1;HPM_P2
2022/01/01 00:01:45;;;;;;;82.38;61.38;;;13.30;99.90;;;;;;6155708;23;20008;-88
2022/01/01 00:04:11;;;;;;;72.18;50.10;;;13.30;99.90;;;;;;6154937;23;20305;-87
2022/01/01 00:06:45;;;;;;;57.45;42.30;;;13.30;99.90;;;;;;6155691;23;19998;-88
2022/01/01 00:09:14;;;;;;;46.22;35.15;;;13.30;99.90;;;;;;6155099;23;20037;-88
2022/01/01 00:11:40;;;;;;;43.15;30.33;;;13.40;99.90;;;;;;6154807;23;20004;-88
2022/01/01 00:14:06;;;;;;;40.42;24.25;;;13.40;99.90;;;;;;6155579;23;20001;-88
2022/01/01 00:16:36;;;;;;;36.47;21.08;;;13.40;99.90;;;;;;6154751;23;20120;-88
2022/01/01 00:19:02;;;;;;;38.42;20.17;;;13.30;99.90;;;;;;6156212;23;20029;-88
2022/01/01 00:21:35;;;;;;;30.77;19.63;;;13.30;99.90;;;;;;6154848;23;20443;-88
2022/01/01 00:24:04;;;;;;;39.45;19.67;;;13.30;99.90;;;;;;6155608;23;20006;-89
2022/01/01 00:26:35;;;;;;;31.17;17.95;;;13.30;99.90;;;;;;6154924;23;20001;-88
2022/01/01 00:29:01;;;;;;;30.92;18.42;;;13.30;99.90;;;;;;6155107;23;20088;-88
2022/01/01 00:31:28;;;;;;;34.85;18.00;;;13.30;99.90;;;;;;6130244;23;20010;-89
2022/01/01 00:33:59;;;;;;;31.17;17.25;;;13.30;99.90;;;;;;6155191;23;20002;-88
2022/01/01 00:36:28;;;;;;;35.63;21.30;;;13.30;99.90;;;;;;6130665;23;20009;-88
2022/01/01 00:38:54;;;;;;;41.22;25.35;;;13.30;99.90;;;;;;6157494;23;20048;-88
2022/01/01 00:41:23;;;;;;;44.28;26.15;;;13.30;99.90;;;;;;6156967;23;19997;-88
2022/01/01 00:43:48;;;;;;;55.97;36.33;;;13.20;99.90;;;;;;6157094;23;20005;-88
2022/01/01 00:46:34;;;;;;;45.03;29.00;;;13.30;99.90;;;;;;6156491;23;20001;-88
2022/01/01 00:49:00;;;;;;;43.17;26.65;;;13.30;99.90;;;;;;6157324;23;20013;-89
2022/01/01 00:51:29;;;;;;;45.13;25.90;;;13.30;99.90;;;;;;6156665;23;20006;-88
2022/01/01 00:53:55;;;;;;;40.95;25.92;;;13.30;99.90;;;;;;6156558;23;20052;-88
2022/01/01 00:56:21;;;;;;;43.53;28.10;;;13.30;99.90;;;;;;6157082;23;19997;-87
2022/01/01 00:58:49;;;;;;;46.60;28.55;;;13.30;99.90;;;;;;6157245;23;20032;-89
2022/01/01 01:01:14;;;;;;;46.10;29.90;;;13.30;99.90;;;;;;6157131;23;20033;-88
2022/01/01 01:03:45;;;;;;;46.28;31.30;;;13.30;99.90;;;;;;6157360;23;20354;-90
2022/01/01 01:06:12;;;;;;;47.25;32.50;;;13.30;99.90;;;;;;6157605;23;20001;-88
2022/01/01 01:08:38;;;;;;;50.30;34.22;;;13.30;99.90;;;;;;6157240;23;20036;-89
2022/01/01 01:11:07;;;;;;;50.85;35.63;;;13.30;99.90;;;;;;6156991;23;20428;-89
2022/01/01 01:13:33;;;;;;;58.33;37.85;;;13.30;99.90;;;;;;6158595;23;19998;-89
2022/01/01 01:16:02;;;;;;;53.38;38.25;;;13.30;99.90;;;;;;6179575;23;20020;-88
2022/01/01 01:18:28;;;;;;;56.03;41.00;;;13.40;99.90;;;;;;6179562;23;20017;-89
2022/01/01 01:20:53;;;;;;;58.65;41.55;;;13.30;99.90;;;;;;6185112;23;19997;-88
2022/01/01 01:23:30;;;;;;;62.88;42.47;;;13.30;99.90;;;;;;6184056;23;20006;-88
2022/01/01 01:26:01;;;;;;;56.40;41.33;;;13.40;99.90;;;;;;6161927;23;19990;-89
2022/01/01 01:28:27;;;;;;;56.80;41.22;;;13.30;99.90;;;;;;6159359;23;20006;-88
2022/01/01 01:30:55;;;;;;;53.22;40.55;;;13.40;99.90;;;;;;6137605;23;20006;-88
2022/01/01 01:33:26;;;;;;;61.13;43.70;;;13.40;99.90;;;;;;6132793;23;20010;-88
2022/01/01 01:35:52;;;;;;;58.92;42.65;;;13.30;99.90;;;;;;6157463;23;19998;-87
2022/01/01 01:38:27;;;;;;;68.55;46.08;;;13.30;99.90;;;;;;6156986;23;20308;-88
2022/01/01 01:40:52;;;;;;;65.40;45.75;;;13.30;99.90;;;;;;6133910;23;20009;-89
2022/01/01 01:43:21;;;;;;;60.40;43.00;;;13.30;99.90;;;;;;6156446;23;20348;-88
2022/01/01 01:45:48;;;;;;;61.28;43.35;;;13.30;99.90;;;;;;6156331;23;20056;-89
2022/01/01 01:48:14;;;;;;;66.00;42.88;;;13.30;99.90;;;;;;6156774;23;20009;-88
2022/01/01 01:50:40;;;;;;;61.95;42.70;;;13.30;99.90;;;;;;6130808;23;20335;-88
2022/01/01 01:53:08;;;;;;;58.25;39.80;;;13.30;99.90;;;;;;6155818;23;20440;-88
2022/01/01 01:55:34;;;;;;;63.85;40.50;;;13.30;99.90;;;;;;6156349;23;20339;-88
2022/01/01 01:58:00;;;;;;;63.67;38.15;;;13.30;99.90;;;;;;6156514;23;20009;-89
2022/01/01 02:03:18;;;;;;;54.95;38.22;;;13.20;99.90;;;;;;6167880;23;20005;-89
2022/01/01 02:05:50;;;;;;;60.40;38.63;;;13.20;99.90;;;;;;6156423;23;20009;-88
2022/01/01 02:08:17;;;;;;;59.70;41.38;;;13.30;99.90;;;;;;6156496;23;20005;-88
2022/01/01 02:10:51;;;;;;;61.22;39.80;;;13.20;99.90;;;;;;6156148;23;20005;-89
2022/01/01 02:13:23;;;;;;;54.42;40.20;;;13.20;99.90;;;;;;6156487;23;20001;-88
2022/01/01 02:18:19;;;;;;;58.80;41.35;;;13.20;99.90;;;;;;6157728;23;20010;-88
2022/01/01 02:20:49;;;;;;;60.85;40.78;;;13.20;99.90;;;;;;6155613;23;20607;-88
2022/01/01 02:23:25;;;;;;;61.97;40.70;;;13.20;99.90;;;;;;6155991;23;20013;-88
2022/01/01 02:25:56;;;;;;;65.75;41.15;;;13.20;99.90;;;;;;6156069;23;20006;-88
2022/01/01 02:28:23;;;;;;;56.70;37.67;;;13.20;99.90;;;;;;6156135;23;20380;-88
2022/01/01 02:30:49;;;;;;;53.28;36.83;;;13.20;99.90;;;;;;6155649;23;20006;-88
2022/01/01 02:33:16;;;;;;;58.78;38.25;;;13.20;99.90;;;;;;6155750;23;20005;-89
2022/01/01 02:35:49;;;;;;;50.45;36.67;;;13.20;99.90;;;;;;6155975;23;20005;-88
2022/01/01 02:38:17;;;;;;;50.45;34.45;;;13.20;99.90;;;;;;6156264;23;20559;-88
2022/01/01 02:40:48;;;;;;;48.95;33.40;;;13.20;99.90;;;;;;6157364;23;20005;-88
2022/01/01 02:43:14;;;;;;;50.80;36.40;;;13.20;99.90;;;;;;6131912;23;20060;-88
2022/01/01 02:45:45;;;;;;;53.72;35.15;;;13.20;99.90;;;;;;6155874;23;20006;-88
2022/01/01 02:48:16;;;;;;;48.92;34.38;;;13.20;99.90;;;;;;6156796;23;20017;-88
2022/01/01 02:50:42;;;;;;;51.75;34.75;;;13.20;99.90;;;;;;6155759;23;20450;-88
2022/01/01 02:53:12;;;;;;;47.65;33.33;;;13.20;99.90;;;;;;6155652;23;20092;-88
2022/01/01 02:55:39;;;;;;;50.92;33.85;;;13.20;99.90;;;;;;6131429;23;20084;-89
2022/01/01 02:58:07;;;;;;;53.65;33.05;;;13.20;99.90;;;;;;6155824;23;20475;-88
2022/01/01 03:00:33;;;;;;;55.35;34.40;;;13.20;99.90;;;;;;6156009;23;20490;-89
2022/01/01 03:02:59;;;;;;;51.47;32.90;;;13.20;99.90;;;;;;6158652;23;20072;-88
2022/01/01 03:05:25;;;;;;;51.05;32.03;;;13.20;99.90;;;;;;6183071;23;20036;-88
2022/01/01 03:07:53;;;;;;;48.80;31.42;;;13.20;99.90;;;;;;6182821;23;19998;-88
2022/01/01 03:10:19;;;;;;;46.10;31.27;;;13.20;99.90;;;;;;6183292;23;20010;-86
2022/01/01 03:15:34;;;;;;;52.15;29.88;;;13.20;99.90;;;;;;6165541;23;20044;-88
2022/01/01 03:18:02;;;;;;;50.05;31.25;;;13.20;99.90;;;;;;6156042;23;20013;-89
2022/01/01 03:20:30;;;;;;;44.58;30.23;;;13.20;99.90;;;;;;6156186;23;20002;-88
2022/01/01 03:22:56;;;;;;;44.88;29.38;;;13.10;99.90;;;;;;6155777;23;20478;-89
2022/01/01 03:25:24;;;;;;;44.03;30.35;;;13.10;99.90;;;;;;6155903;23;20001;-88
2022/01/01 03:27:50;;;;;;;40.53;27.27;;;13.20;99.90;;;;;;6155397;23;20014;-88
2022/01/01 03:30:18;;;;;;;43.78;27.17;;;13.20;99.90;;;;;;6155758;23;20001;-88
2022/01/01 03:32:44;;;;;;;43.53;28.40;;;13.20;99.90;;;;;;6155241;23;20004;-87
2022/01/01 03:35:10;;;;;;;44.50;27.13;;;13.20;99.90;;;;;;6154895;23;20002;-87
2022/01/01 03:37:36;;;;;;;41.42;27.08;;;13.20;99.90;;;;;;6154520;23;20006;-88
2022/01/01 03:40:04;;;;;;;40.42;25.33;;;13.20;99.90;;;;;;6130724;23;20052;-87
2022/01/01 03:42:30;;;;;;;39.72;24.52;;;13.20;99.90;;;;;;6130771;23;20002;-86
2022/01/01 03:44:58;;;;;;;40.03;24.13;;;13.20;99.90;;;;;;6155068;23;20420;-87
2022/01/01 03:47:24;;;;;;;36.78;24.35;;;13.20;99.90;;;;;;6105844;23;20378;-88
2022/01/01 03:49:49;;;;;;;33.05;22.17;;;13.20;99.90;;;;;;6129904;23;20048;-87
2022/01/01 03:52:18;;;;;;;36.80;22.98;;;13.20;99.90;;;;;;6154968;23;20065;-88
2022/01/01 03:54:44;;;;;;;38.88;23.25;;;13.20;99.90;;;;;;6154587;23;20013;-87
2022/01/01 03:57:09;;;;;;;34.58;21.55;;;13.20;99.90;;;;;;6155544;23;20093;-87
2022/01/01 03:59:38;;;;;;;28.25;20.08;;;13.20;99.90;;;;;;6154802;23;20064;-87
2022/01/01 04:02:03;;;;;;;33.58;20.27;;;13.20;99.90;;;;;;6155202;23;20089;-87
2022/01/01 04:04:34;;;;;;;35.67;21.00;;;13.20;99.90;;;;;;6154467;23;20454;-87
2022/01/01 04:07:02;;;;;;;31.92;18.15;;;13.20;99.90;;;;;;6154880;23;20013;-87
2022/01/01 04:09:32;;;;;;;29.63;17.42;;;13.20;99.90;;;;;;6155028;23;20005;-87
2022/01/01 04:12:01;;;;;;;27.17;16.75;;;13.20;99.90;;;;;;6156465;23;20089;-88
2022/01/01 04:14:27;;;;;;;30.63;18.15;;;13.20;99.90;;;;;;6154749;23;20001;-87
2022/01/01 04:16:54;;;;;;;36.42;17.95;;;13.20;99.90;;;;;;6156295;23;20002;-87
2022/01/01 04:19:29;;;;;;;30.38;16.08;;;13.20;99.90;;;;;;6130450;23;20496;-87
2022/01/01 04:21:54;;;;;;;28.52;15.60;;;13.10;99.90;;;;;;6156338;23;20008;-87
2022/01/01 04:24:20;;;;;;;24.65;15.02;;;13.20;99.90;;;;;;6130691;23;20332;-87
2022/01/01 04:26:49;;;;;;;26.15;14.65;;;13.20;99.90;;;;;;6154217;23;20001;-87
2022/01/01 04:29:15;;;;;;;22.70;13.77;;;13.20;99.90;;;;;;6155227;23;20013;-87
2022/01/01 04:31:41;;;;;;;21.83;12.57;;;13.20;99.90;;;;;;6130510;23;20036;-87
2022/01/01 04:34:07;;;;;;;19.75;11.93;;;13.20;99.90;;;;;;6156683;23;20074;-87
2022/01/01 04:36:33;;;;;;;22.20;11.75;;;13.20;99.90;;;;;;6155045;23;20028;-87
2022/01/01 04:39:07;;;;;;;22.38;11.75;;;13.20;99.90;;;;;;6155133;23;20417;-87
2022/01/01 04:41:33;;;;;;;24.95;11.40;;;13.20;99.90;;;;;;6132278;23;20009;-87
2022/01/01 04:43:58;;;;;;;20.20;11.50;;;13.30;99.90;;;;;;6155227;23;19998;-87
2022/01/01 04:46:24;;;;;;;19.98;10.50;;;13.30;99.90;;;;;;6131144;23;20017;-87
2022/01/01 04:48:52;;;;;;;22.08;10.07;;;13.30;99.90;;;;;;6155280;23;20324;-87
2022/01/01 04:51:18;;;;;;;18.63;10.23;;;13.30;99.90;;;;;;6156240;23;20021;-87
2022/01/01 04:53:44;;;;;;;22.40;9.85;;;13.30;99.90;;;;;;6155405;23;20001;-88
2022/01/01 04:56:10;;;;;;;16.90;8.93;;;13.30;99.90;;;;;;6183426;23;19986;-86
2022/01/01 04:58:39;;;;;;;20.15;9.77;;;13.30;99.90;;;;;;6182361;23;20028;-88
2022/01/01 05:01:07;;;;;;;18.55;9.55;;;13.30;99.90;;;;;;6146358;23;20096;-87
2022/01/01 05:03:38;;;;;;;16.05;9.15;;;13.30;99.90;;;;;;6131516;23;20033;-87
2022/01/01 05:06:04;;;;;;;16.17;8.60;;;13.30;99.90;;;;;;6155641;23;20390;-86
2022/01/01 05:08:29;;;;;;;18.15;8.77;;;13.30;99.90;;;;;;6154473;23;20447;-87
2022/01/01 05:10:55;;;;;;;19.45;9.07;;;13.30;99.90;;;;;;6155182;23;20064;-87
2022/01/01 05:13:21;;;;;;;15.95;8.93;;;13.30;99.90;;;;;;6154572;23;20001;-86
2022/01/01 05:15:50;;;;;;;15.50;8.88;;;13.30;99.90;;;;;;6154945;23;20459;-86
2022/01/01 05:18:16;;;;;;;17.40;8.07;;;13.30;99.90;;;;;;6154709;23;20009;-87
2022/01/01 05:20:42;;;;;;;16.27;8.15;;;13.30;99.90;;;;;;6154379;23;20013;-88
2022/01/01 05:23:07;;;;;;;17.35;9.32;;;13.30;99.90;;;;;;6129309;23;20346;-87
2022/01/01 05:25:33;;;;;;;15.90;8.95;;;13.30;99.90;;;;;;6156299;23;20002;-87
2022/01/01 05:27:59;;;;;;;15.50;8.90;;;13.30;99.90;;;;;;6155869;23;20012;-87
2022/01/01 05:30:25;;;;;;;16.73;9.13;;;13.30;99.90;;;;;;6156646;23;20453;-87
2022/01/01 05:32:50;;;;;;;15.43;8.93;;;13.30;99.90;;;;;;6131292;23;20012;-87
2022/01/01 05:35:19;;;;;;;14.63;8.27;;;13.30;99.90;;;;;;6155535;23;20012;-87
2022/01/01 05:37:44;;;;;;;14.60;9.00;;;13.30;99.90;;;;;;6132263;23;20017;-87
2022/01/01 05:40:10;;;;;;;18.27;8.85;;;13.30;99.90;;;;;;6156079;23;20320;-87
2022/01/01 05:42:36;;;;;;;18.63;8.80;;;13.30;99.90;;;;;;6156128;23;20045;-87
2022/01/01 05:45:02;;;;;;;16.60;8.90;;;13.30;99.90;;;;;;6156108;23;20010;-88
2022/01/01 05:47:30;;;;;;;14.88;8.98;;;13.30;99.90;;;;;;6157926;23;20077;-87
2022/01/01 05:49:58;;;;;;;16.98;9.30;;;13.30;99.90;;;;;;6155730;23;20313;-87
2022/01/01 05:52:24;;;;;;;13.20;8.00;;;13.30;99.90;;;;;;6156552;23;20431;-87
2022/01/01 05:54:53;;;;;;;15.00;8.07;;;13.20;99.90;;;;;;6130917;23;20013;-87
2022/01/01 05:57:21;;;;;;;13.05;8.68;;;13.30;99.90;;;;;;6157369;23;20044;-88
2022/01/01 05:59:46;;;;;;;18.42;8.93;;;13.30;99.90;;;;;;6155469;23;20416;-87
2022/01/01 06:02:12;;;;;;;16.02;8.80;;;13.30;99.90;;;;;;6155211;23;20060;-87
2022/01/01 06:04:43;;;;;;;14.20;7.97;;;13.30;99.90;;;;;;6156069;23;20088;-88
2022/01/01 06:07:10;;;;;;;15.55;8.30;;;13.30;99.90;;;;;;6131931;23;20054;-88
2022/01/01 06:09:36;;;;;;;14.88;9.23;;;13.20;99.90;;;;;;6156121;23;20088;-87
2022/01/01 06:12:02;;;;;;;16.90;8.48;;;13.30;99.90;;;;;;6131377;23;20037;-88
2022/01/01 06:14:31;;;;;;;15.23;8.30;;;13.30;99.90;;;;;;6155723;23;20001;-87
2022/01/01 06:16:59;;;;;;;15.32;8.70;;;13.30;99.90;;;;;;6155376;23;20006;-87
2022/01/01 06:19:25;;;;;;;12.95;7.40;;;13.20;99.90;;;;;;6156284;23;20041;-87
2022/01/01 06:21:52;;;;;;;14.35;8.13;;;13.30;99.90;;;;;;6156388;23;19997;-87
2022/01/01 06:24:18;;;;;;;12.75;7.75;;;13.30;99.90;;;;;;6156224;23;20020;-87
2022/01/01 06:26:44;;;;;;;20.02;8.63;;;13.30;99.90;;;;;;6156449;23;20021;-87
2022/01/01 06:29:10;;;;;;;14.50;7.45;;;13.30;99.90;;;;;;6155763;23;20005;-87
2022/01/01 06:31:36;;;;;;;13.57;7.88;;;13.30;99.90;;;;;;6155909;23;20008;-88
2022/01/01 06:34:04;;;;;;;15.18;7.45;;;13.30;99.90;;;;;;6133064;23;20428;-88
2022/01/01 06:36:30;;;;;;;16.52;7.78;;;13.30;99.90;;;;;;6151421;23;19985;-87
2022/01/01 06:38:57;;;;;;;11.60;7.28;;;13.30;99.90;;;;;;6182946;23;20021;-89
2022/01/01 06:41:24;;;;;;;15.23;7.68;;;13.30;99.90;;;;;;6183154;23;19989;-87
2022/01/01 06:43:52;;;;;;;16.50;8.68;;;13.30;99.90;;;;;;6145881;23;20348;-87
2022/01/01 06:46:18;;;;;;;13.82;7.45;;;13.20;99.90;;;;;;6171627;23;20005;-87
2022/01/01 06:48:44;;;;;;;12.75;7.38;;;13.20;99.90;;;;;;6156033;23;20121;-87
2022/01/01 06:51:12;;;;;;;13.77;7.35;;;13.30;99.90;;;;;;6155860;23;19998;-87
2022/01/01 06:53:38;;;;;;;11.60;6.85;;;13.30;99.90;;;;;;6131664;23;20041;-87
2022/01/01 06:56:05;;;;;;;14.68;7.47;;;13.20;99.90;;;;;;6130870;23;20072;-87
2022/01/01 06:58:36;;;;;;;12.75;7.85;;;13.20;99.90;;;;;;6155567;23;20440;-86
2022/01/01 07:01:05;;;;;;;13.87;7.40;;;13.10;99.90;;;;;;6155501;23;20006;-86
2022/01/01 07:03:31;;;;;;;16.40;7.85;;;13.10;99.90;;;;;;6155192;23;20030;-86
2022/01/01 07:05:57;;;;;;;16.13;7.28;;;13.10;99.90;;;;;;6155553;23;20005;-87
2022/01/01 07:08:25;;;;;;;11.73;6.28;;;13.10;99.90;;;;;;6155614;23;20006;-86
2022/01/01 07:10:50;;;;;;;14.10;6.97;;;13.00;99.90;;;;;;6130819;23;20006;-87
2022/01/01 07:13:16;;;;;;;13.65;6.75;;;13.00;99.90;;;;;;6155404;23;20008;-86
2022/01/01 07:15:45;;;;;;;14.20;6.38;;;13.00;99.90;;;;;;6131206;23;20010;-87
2022/01/01 07:18:10;;;;;;;12.70;6.57;;;12.90;99.90;;;;;;6130171;23;20423;-87
2022/01/01 07:20:36;;;;;;;11.30;5.82;;;12.90;99.90;;;;;;6155346;23;20005;-87
2022/01/01 07:23:02;;;;;;;12.05;6.32;;;12.90;99.90;;;;;;6155171;23;20449;-87
2022/01/01 07:25:33;;;;;;;11.93;5.85;;;12.90;99.90;;;;;;6155499;23;20071;-87
2022/01/01 07:27:59;;;;;;;11.00;5.82;;;12.90;99.90;;;;;;6155615;23;20056;-87
2022/01/01 07:30:25;;;;;;;11.70;5.55;;;12.90;99.90;;;;;;6154752;23;20005;-87
2022/01/01 07:32:51;;;;;;;10.80;6.13;;;12.80;99.90;;;;;;6155447;23;20009;-87
2022/01/01 07:35:18;;;;;;;13.48;6.88;;;12.80;99.90;;;;;;6130700;23;20012;-87
2022/01/01 07:37:45;;;;;;;11.52;5.68;;;12.80;99.90;;;;;;6154787;23;20010;-85
2022/01/01 07:40:13;;;;;;;8.90;4.95;;;12.90;99.90;;;;;;6155113;23;20417;-87
2022/01/01 07:42:43;;;;;;;11.80;5.10;;;12.90;99.90;;;;;;6154824;23;19998;-86
2022/01/01 07:45:09;;;;;;;10.05;5.90;;;12.90;99.90;;;;;;6154501;23;20002;-87
2022/01/01 07:47:35;;;;;;;10.48;5.72;;;12.90;99.90;;;;;;6155360;23;20001;-86
2022/01/01 07:50:02;;;;;;;12.57;5.22;;;12.90;99.90;;;;;;6155168;23;20006;-86
2022/01/01 07:52:28;;;;;;;12.98;5.63;;;12.90;99.90;;;;;;6130236;23;20419;-87
2022/01/01 07:54:56;;;;;;;11.50;5.82;;;12.90;99.90;;;;;;6154497;23;20045;-87
2022/01/01 07:57:22;;;;;;;9.85;5.28;;;12.90;99.90;;;;;;6130327;23;20005;-87
2022/01/01 07:59:49;;;;;;;11.80;5.70;;;12.80;99.90;;;;;;6155020;23;20021;-87
2022/01/01 08:02:15;;;;;;;10.68;5.72;;;12.80;99.90;;;;;;6154679;23;20001;-86
2022/01/01 08:04:40;;;;;;;12.10;5.15;;;12.80;99.90;;;;;;6130117;23;20017;-87
2022/01/01 08:07:06;;;;;;;7.60;4.50;;;12.80;99.90;;;;;;6106375;23;20008;-88
2022/01/01 08:09:32;;;;;;;14.40;4.60;;;12.80;99.90;;;;;;6155428;23;20002;-87
2022/01/01 08:12:01;;;;;;;13.07;6.07;;;12.70;99.90;;;;;;6155499;23;20051;-88
2022/01/01 08:14:27;;;;;;;13.38;5.47;;;12.70;99.90;;;;;;6156816;23;20007;-87
2022/01/01 08:17:07;;;;;;;9.88;4.55;;;12.80;99.90;;;;;;6106922;23;20090;-87
2022/01/01 08:19:36;;;;;;;13.67;5.10;;;12.80;99.90;;;;;;6156853;23;20428;-87
2022/01/01 08:22:04;;;;;;;10.27;4.63;;;12.70;99.90;;;;;;6152543;23;20069;-86
2022/01/01 08:24:30;;;;;;;12.57;5.35;;;12.80;99.90;;;;;;6181585;23;20017;-87
2022/01/01 08:26:58;;;;;;;10.00;4.82;;;12.70;99.90;;;;;;6182321;23;20001;-85
2022/01/01 08:29:28;;;;;;;9.43;5.20;;;12.70;99.90;;;;;;6181788;23;19990;-87
2022/01/01 08:31:56;;;;;;;13.82;5.15;;;12.70;99.90;;;;;;6148416;23;20010;-88
2022/01/01 08:34:33;;;;;;;;;;;;;;;;;;;;;
2022/01/01 08:36:59;;;;;;;10.85;4.85;;;12.70;99.90;;;;;;6156887;23;20089;-87
2022/01/01 08:39:33;;;;;;;11.07;5.20;;;12.70;99.90;;;;;;6130265;23;20033;-87
2022/01/01 08:41:59;;;;;;;10.25;4.95;;;12.70;99.90;;;;;;6156341;23;20005;-87
2022/01/01 08:44:28;;;;;;;10.07;5.03;;;12.80;99.90;;;;;;6154614;23;20335;-87
2022/01/01 08:47:03;;;;;;;9.40;5.30;;;12.80;99.90;;;;;;6130742;23;20016;-89
2022/01/01 08:49:29;;;;;;;12.10;4.45;;;12.70;99.90;;;;;;6131264;23;20028;-89
2022/01/01 08:51:57;;;;;;;11.15;5.50;;;12.80;99.90;;;;;;6156885;23;20080;-89
2022/01/01 08:54:23;;;;;;;8.85;5.40;;;12.80;99.90;;;;;;6155056;23;20040;-89
2022/01/01 08:56:55;;;;;;;9.32;4.97;;;12.80;99.90;;;;;;6155828;23;20033;-86
2022/01/01 08:59:20;;;;;;;7.70;4.57;;;12.80;99.90;;;;;;6130972;23;20041;-87
2022/01/01 09:01:46;;;;;;;10.77;5.28;;;12.90;99.90;;;;;;6156389;23;20439;-87
2022/01/01 09:04:12;;;;;;;8.20;4.40;;;12.90;99.90;;;;;;6156641;23;19997;-88
2022/01/01 09:06:41;;;;;;;10.35;4.80;;;12.90;99.90;;;;;;6156608;23;20009;-87
2022/01/01 09:09:10;;;;;;;10.98;4.20;;;13.00;99.90;;;;;;6157104;23;20370;-88
2022/01/01 09:11:36;;;;;;;7.10;4.53;;;13.00;99.90;;;;;;6156424;23;20001;-88
2022/01/01 09:14:06;;;;;;;8.32;4.32;;;13.00;99.90;;;;;;6156243;23;20056;-87
2022/01/01 09:16:32;;;;;;;11.05;4.70;;;13.00;99.90;;;;;;6156663;23;20001;-86
2022/01/01 09:19:42;;;;;;;8.60;3.88;;;13.00;99.90;;;;;;6156869;23;20056;-87
2022/01/01 09:22:31;;;;;;;;;;;;;;;;;;;;;
2022/01/01 09:25:20;;;;;;;9.23;4.00;;;13.10;99.90;;;;;;6156614;23;20104;-88
2022/01/01 09:28:13;;;;;;;10.18;4.03;;;13.10;99.90;;;;;;6156998;23;20029;-87
2022/01/01 09:31:24;;;;;;;9.25;3.83;;;13.10;99.90;;;;;;6157159;23;20006;-88
2022/01/01 09:34:06;;;;;;;7.88;4.22;;;13.10;99.90;;;;;;6157605;23;20009;-88
2022/01/01 09:36:35;;;;;;;8.52;4.03;;;13.20;99.90;;;;;;6134113;23;20005;-88
2022/01/01 09:39:24;;;;;;;;;;;;;;;;;;;;;
2022/01/01 09:41:53;;;;;;;10.30;3.60;;;13.20;99.90;;;;;;6157911;23;20081;-89
2022/01/01 09:44:25;;;;;;;10.20;4.65;;;13.20;99.90;;;;;;6156295;23;20368;-89
2022/01/01 09:47:22;;;;;;;;;;;13.20;99.90;;;;;;6133545;23;20005;-89
2022/01/01 09:50:08;;;;;;;8.70;3.75;;;13.30;99.90;;;;;;5988008;23;19913;-89
2022/01/01 09:52:53;;;;;;;8.65;4.07;;;13.30;99.90;;;;;;5987613;23;20003;-93
2022/01/01 09:55:26;;;;;;;9.20;3.85;;;13.30;99.90;;;;;;5986487;23;20015;-88
2022/01/01 09:58:13;;;;;;;9.40;4.63;;;13.30;99.90;;;;;;5987194;23;20502;-87
2022/01/01 10:00:39;;;;;;;6.80;4.35;;;13.30;99.90;;;;;;5981854;23;20038;-87
2022/01/01 10:03:05;;;;;;;9.27;4.40;;;13.30;99.90;;;;;;5990868;23;20008;-86
2022/01/01 10:05:33;;;;;;;11.05;4.78;;;13.30;99.90;;;;;;5996158;23;20003;-87
2022/01/01 10:08:04;;;;;;;8.35;4.35;;;13.30;99.90;;;;;;6180769;23;19990;-86
2022/01/01 10:10:30;;;;;;;10.23;4.63;;;13.30;99.90;;;;;;6183068;23;19993;-88
2022/01/01 10:13:24;;;;;;;9.23;4.10;;;13.30;99.90;;;;;;6181964;23;20057;-85
2022/01/01 10:15:54;;;;;;;8.32;4.13;;;13.40;99.90;;;;;;6144453;23;20013;-85
2022/01/01 10:19:02;;;;;;;7.72;4.25;;;13.40;99.90;;;;;;6160047;23;20336;-87
2022/01/01 10:21:41;;;;;;;8.43;4.90;;;13.40;99.90;;;;;;6155939;23;20092;-88
2022/01/01 10:24:13;;;;;;;10.77;4.72;;;13.40;99.90;;;;;;6156546;23;20056;-88
2022/01/01 10:29:32;;;;;;;7.88;4.90;;;13.50;99.90;;;;;;6157295;23;20052;-87
2022/01/01 10:32:13;;;;;;;8.93;4.82;;;13.50;99.90;;;;;;6156458;23;19998;-88
2022/01/01 10:34:47;;;;;;;9.25;4.85;;;13.50;99.90;;;;;;6157013;23;20068;-88
2022/01/01 10:37:18;;;;;;;7.55;4.63;;;13.50;99.90;;;;;;6156396;23;20309;-87
2022/01/01 10:39:52;;;;;;;8.07;4.80;;;13.50;99.90;;;;;;6155778;23;20060;-88
2022/01/01 10:42:24;;;;;;;8.43;5.00;;;13.60;99.90;;;;;;6158051;23;20129;-88
2022/01/01 10:44:58;;;;;;;9.82;4.93;;;13.60;99.90;;;;;;6155927;23;20007;-88
2022/01/01 10:47:32;;;;;;;8.48;4.63;;;13.60;99.90;;;;;;6156229;23;20420;-87
2022/01/01 10:52:45;;;;;;;7.07;4.65;;;13.60;99.90;;;;;;6167047;23;20001;-88
2022/01/01 10:55:17;;;;;;;7.18;4.47;;;13.70;99.90;;;;;;6157091;23;20009;-95
2022/01/01 10:57:55;;;;;;;8.65;6.40;;;13.70;99.90;;;;;;6130621;23;20008;-86
2022/01/01 11:00:28;;;;;;;13.00;7.32;;;13.70;99.90;;;;;;6154361;23;20335;-87
2022/01/01 11:02:56;;;;;;;8.70;5.75;;;13.70;99.90;;;;;;6155811;23;20029;-86
2022/01/01 11:05:38;;;;;;;8.50;5.72;;;13.70;99.90;;;;;;6155398;23;20001;-87
2022/01/01 11:08:07;;;;;;;7.10;4.32;;;13.70;99.90;;;;;;6156053;23;20001;-86
2022/01/01 11:10:33;;;;;;;8.98;5.20;;;13.70;99.90;;;;;;6155302;23;20009;-86
2022/01/01 11:13:16;;;;;;;;;;;;;;;;;;;;;
2022/01/01 11:16:23;;;;;;;8.15;4.55;;;13.80;99.90;;;;;;6157129;23;20076;-88
2022/01/01 11:18:55;;;;;;;6.63;4.15;;;13.80;99.90;;;;;;6133144;23;20009;-89
2022/01/01 11:21:36;;;;;;;7.85;4.85;;;13.80;99.90;;;;;;6130879;23;20044;-89
2022/01/01 11:24:12;;;;;;;9.50;4.40;;;13.80;99.90;;;;;;6132827;23;20496;-88
2022/01/01 11:26:47;;;;;;;8.40;4.43;;;13.80;99.90;;;;;;6135385;23;20002;-88
2022/01/01 11:29:36;;;;;;;7.00;4.35;;;13.90;99.90;;;;;;6159705;23;20050;-88
2022/01/01 11:32:15;;;;;;;9.40;4.53;;;13.90;99.90;;;;;;6136960;23;20032;-89
2022/01/01 11:34:54;;;;;;;6.00;3.97;;;13.90;99.90;;;;;;6156314;23;20088;-91
2022/01/01 11:38:10;;;;;;;;;;;;;;;;;;;;;
2022/01/01 11:41:21;;;;;;;7.95;4.53;;;13.90;99.90;;;;;;6159229;23;20550;-90
2022/01/01 11:43:55;;;;;;;9.40;4.30;;;13.90;99.90;;;;;;6095209;23;20471;-90
2022/01/01 11:46:33;;;;;;;7.18;4.15;;;13.90;99.90;;;;;;6157165;23;19998;-91
2022/01/01 11:49:16;;;;;;;;;;;;;;;;;;;;;
2022/01/01 11:52:14;;;;;;;;;;;;;;;;;;;;;
2022/01/01 11:54:43;;;;;;;7.90;4.13;;;14.00;99.90;;;;;;6182226;23;19990;-93
2022/01/01 11:57:25;;;;;;;6.88;4.18;;;14.00;99.90;;;;;;6181697;23;19982;-91
2022/01/01 12:00:05;;;;;;;;;;;;;;;;;;;;;
2022/01/01 12:05:39;;;;;;;6.35;4.68;;;14.00;99.90;;;;;;6159359;23;20092;-89
2022/01/01 12:08:53;;;;;;;6.30;4.10;;;14.00;99.90;;;;;;6156775;23;20045;-91
2022/01/01 12:12:24;;;;;;;;;;;;;;;;;;;;;
2022/01/01 12:15:40;;;;;;;;;;;;;;;;;;;;;
2022/01/01 12:18:31;;;;;;;;;;;;;;;;;;;;;
2022/01/01 12:21:22;;;;;;;7.40;3.78;;;14.10;99.90;;;;;;6157332;23;20049;-90
2022/01/01 12:24:08;;;;;;;;;;;;;;;;;;;;;
2022/01/01 12:26:51;;;;;;;7.63;4.55;;;14.10;99.90;;;;;;6157060;23;20073;-93
2022/01/01 12:29:24;;;;;;;7.18;4.18;;;14.10;99.90;;;;;;6155642;23;20017;-89
2022/01/01 12:32:00;;;;;;;8.45;4.05;;;14.10;99.90;;;;;;6157094;23;20002;-90
2022/01/01 12:34:29;;;;;;;8.25;4.28;;;14.20;99.90;;;;;;6155611;23;20080;-91
2022/01/01 12:37:07;;;;;;;12.57;8.70;;;14.20;99.90;;;;;;6155619;23;20444;-89
2022/01/01 12:40:07;;;;;;;9.43;6.88;;;14.20;99.90;;;;;;6132799;23;20072;-88
2022/01/01 12:43:18;;;;;;;8.87;5.07;;;14.30;99.90;;;;;;6155819;23;20009;-88
2022/01/01 12:46:02;;;;;;;6.60;4.40;;;14.30;99.90;;;;;;6154706;23;20005;-89
2022/01/01 12:48:36;;;;;;;6.03;4.00;;;14.30;99.90;;;;;;6155122;23;20013;-86
2022/01/01 12:51:23;;;;;;;7.43;3.60;;;14.30;99.90;;;;;;6130575;23;20006;-87
2022/01/01 12:53:54;;;;;;;5.68;3.35;;;14.30;99.90;;;;;;6154313;23;20032;-86
2022/01/01 12:56:21;;;;;;;6.90;3.45;;;14.30;99.90;;;;;;6154662;23;20498;-87
2022/01/01 12:58:49;;;;;;;4.65;3.42;;;14.30;99.90;;;;;;6154058;23;20021;-87
2022/01/01 13:01:27;;;;;;;6.72;3.80;;;14.30;99.90;;;;;;6154322;23;20027;-86
2022/01/01 13:04:03;;;;;;;6.63;3.65;;;14.30;99.90;;;;;;6153997;23;19998;-88
2022/01/01 13:06:50;;;;;;;;;;;;;;;;;;;;;
2022/01/01 13:09:52;;;;;;;;;;;;;;;;;;;;;
2022/01/01 13:12:41;;;;;;;;;;;;;;;;;;;;;
2022/01/01 13:37:14;;;;;;;;;;;;;;;;;;;;;
2022/01/01 13:47:31;;;;;;;7.00;3.30;;;14.20;99.90;;;;;;5790584;24;20003;-87
2022/01/01 13:50:20;;;;;;;6.03;3.58;;;14.20;99.90;;;;;;5791821;24;20019;-87
2022/01/01 13:53:09;;;;;;;7.32;4.00;;;14.10;99.90;;;;;;5937307;23;20036;-87
2022/01/01 13:56:02;;;;;;;;;;;;;;;;;;;;;
2022/01/01 13:58:38;;;;;;;6.75;3.90;;;14.10;99.90;;;;;;6157509;23;20109;-87
2022/01/01 14:01:34;;;;;;;7.70;4.15;;;14.10;99.90;;;;;;6156727;23;20005;-89
2022/01/01 14:04:08;;;;;;;6.10;3.92;;;14.10;99.90;;;;;;6157325;23;20004;-88
2022/01/01 14:06:46;;;;;;;;;;;;;;;;;;;;;
2022/01/01 14:09:32;;;;;;;;;;;;;;;;;;;;;